Time;durP1;ratioP1;P1;durP2;ratioP2;P2;SDS_P1;SDS_P2;PMS_P1;PMS_P2;Temp;Humidity;BMP_temperature;BMP_pressure;BME280_temperature;BME280_humidity;BME280_pressure;Samples;Min_cycle;Max_cycle;Signal;HPM_P1;HPM_P2
2021/06/15 00:02:02;;;;;;;5.70;3.13;;;18.70;57.50;;;;;;6274667;22;20008;-84
2021/06/15 00:04:29;;;;;;;4.18;2.65;;;18.70;57.40;;;;;;6275087;22;20008;-84
2021/06/15 00:06:54;;;;;;;4.43;2.55;;;18.70;57.60;;;;;;6276906;22;20006;-84
2021/06/15 00:09:20;;;;;;;5.68;2.90;;;18.60;57.60;;;;;;6275128;22;20004;-84
2021/06/15 00:11:46;;;;;;;6.40;3.30;;;18.70;57.70;;;;;;6275100;22;20031;-84
2021/06/15 00:14:11;;;;;;;4.38;2.78;;;18.70;57.80;;;;;;6276577;22;20334;-84
2021/06/15 00:16:37;;;;;;;3.85;2.83;;;18.60;57.70;;;;;;6275451;22;20003;-84
2021/06/15 00:19:03;;;;;;;4.60;2.58;;;18.60;57.90;;;;;;6275495;22;20003;-84
2021/06/15 00:21:29;;;;;;;4.45;3.08;;;18.60;57.90;;;;;;6274874;22;20007;-84
2021/06/15 00:23:55;;;;;;;4.38;3.13;;;18.60;58.10;;;;;;6274875;22;20110;-84
2021/06/15 00:26:20;;;;;;;5.07;2.85;;;18.50;57.90;;;;;;6276694;22;20000;-84
2021/06/15 00:28:46;;;;;;;4.72;2.63;;;18.40;58.10;;;;;;6274831;22;20014;-84
2021/06/15 00:31:12;;;;;;;4.70;2.53;;;18.40;58.30;;;;;;6274059;22;20069;-84
2021/06/15 00:33:38;;;;;;;6.05;2.72;;;18.40;58.20;;;;;;6274850;22;20003;-84
2021/06/15 00:36:04;;;;;;;7.45;2.90;;;18.40;58.20;;;;;;6274722;22;19999;-84
2021/06/15 00:38:30;;;;;;;5.32;2.70;;;18.40;58.30;;;;;;6276712;22;19992;-84
2021/06/15 00:40:56;;;;;;;12.07;3.25;;;18.30;58.30;;;;;;6274796;22;20065;-85
2021/06/15 00:43:21;;;;;;;4.38;2.88;;;18.20;58.50;;;;;;6276266;22;20007;-84
2021/06/15 00:45:47;;;;;;;4.93;2.80;;;18.10;58.90;;;;;;6278624;22;20014;-84
2021/06/15 00:48:34;;;;;;;3.83;2.53;;;18.20;58.90;;;;;;6279821;22;20014;-84
2021/06/15 00:51:00;;;;;;;8.57;2.70;;;18.00;59.30;;;;;;6279705;22;20499;-84
2021/06/15 00:53:27;;;;;;;6.28;3.83;;;18.10;59.50;;;;;;6279297;22;20000;-83
2021/06/15 00:55:54;;;;;;;5.60;3.13;;;18.00;59.50;;;;;;6280147;22;20013;-83
2021/06/15 00:58:20;;;;;;;6.38;3.03;;;18.00;59.50;;;;;;6279681;22;20398;-83
2021/06/15 01:00:47;;;;;;;4.15;2.50;;;18.00;59.10;;;;;;6279218;22;20003;-82
2021/06/15 01:03:14;;;;;;;5.28;2.83;;;18.00;58.40;;;;;;6279776;22;20003;-83
2021/06/15 01:05:40;;;;;;;7.55;2.63;;;18.00;58.00;;;;;;6279042;22;20042;-84
2021/06/15 01:08:38;;;;;;;5.32;2.72;;;18.00;57.90;;;;;;6307171;22;20003;-83
2021/06/15 01:11:39;;;;;;;5.22;2.30;;;18.00;57.70;;;;;;6307376;22;20075;-83
2021/06/15 01:14:35;;;;;;;4.88;2.20;;;18.10;57.20;;;;;;6225771;22;20372;-83
2021/06/15 01:17:09;;;;;;;3.92;2.05;;;18.10;57.20;;;;;;6307288;22;20022;-83
2021/06/15 01:19:55;;;;;;;6.72;2.60;;;18.00;57.50;;;;;;6280082;22;19995;-83
2021/06/15 01:22:39;;;;;;;4.10;2.80;;;18.00;58.10;;;;;;6279364;22;20003;-84
2021/06/15 01:25:13;;;;;;;4.93;2.85;;;17.90;58.30;;;;;;6279195;22;20010;-83
2021/06/15 01:27:57;;;;;;;4.10;2.80;;;17.90;58.30;;;;;;6307036;22;20058;-84
2021/06/15 01:30:25;;;;;;;6.35;2.70;;;17.90;58.30;;;;;;6279689;22;20004;-83
2021/06/15 01:33:02;;;;;;;5.03;2.53;;;18.00;58.10;;;;;;6279862;22;20006;-84
2021/06/15 01:35:32;;;;;;;5.07;2.40;;;18.00;58.30;;;;;;6279268;22;20034;-84
2021/06/15 01:38:04;;;;;;;5.35;2.72;;;18.10;58.10;;;;;;6306898;22;20042;-83
2021/06/15 01:40:53;;;;;;;5.05;2.78;;;18.10;58.10;;;;;;6279446;22;20003;-83
2021/06/15 01:43:26;;;;;;;3.63;2.63;;;18.00;58.00;;;;;;6279568;22;20771;-83
2021/06/15 01:45:53;;;;;;;6.22;2.17;;;18.00;58.00;;;;;;6279081;22;20007;-83
2021/06/15 01:48:25;;;;;;;3.00;2.53;;;17.90;57.70;;;;;;6280079;22;20049;-84
2021/06/15 01:50:52;;;;;;;3.13;2.25;;;17.90;57.90;;;;;;6307449;22;20009;-83
2021/06/15 01:53:20;;;;;;;6.00;2.58;;;17.90;57.80;;;;;;6280779;22;20044;-82
2021/06/15 01:55:50;;;;;;;7.53;3.03;;;17.90;57.70;;;;;;6281566;22;20038;-84
2021/06/15 01:58:16;;;;;;;4.10;2.30;;;17.90;57.60;;;;;;6281749;22;20076;-83
2021/06/15 02:00:44;;;;;;;5.18;2.63;;;17.90;57.60;;;;;;6308652;22;20544;-84
2021/06/15 02:03:11;;;;;;;5.55;2.85;;;17.90;57.70;;;;;;6281543;22;20035;-84
2021/06/15 02:05:43;;;;;;;3.75;2.78;;;17.80;57.70;;;;;;6281497;22;20040;-84
2021/06/15 02:08:13;;;;;;;5.63;2.20;;;17.70;58.00;;;;;;6282123;22;20011;-84
2021/06/15 02:10:40;;;;;;;5.80;2.87;;;17.60;58.50;;;;;;6308816;22;20082;-83
2021/06/15 02:13:06;;;;;;;6.15;2.65;;;17.60;58.90;;;;;;6280896;22;20366;-83
2021/06/15 02:15:34;;;;;;;4.72;2.53;;;17.50;59.00;;;;;;6281753;22;20025;-83
2021/06/15 02:18:01;;;;;;;5.47;2.73;;;17.50;59.20;;;;;;6281312;22;20098;-84
2021/06/15 02:20:55;;;;;;;4.38;2.65;;;17.50;59.20;;;;;;6281208;22;20397;-85
2021/06/15 02:23:24;;;;;;;6.00;2.33;;;17.60;59.30;;;;;;6281465;22;20502;-85
2021/06/15 02:25:59;;;;;;;3.40;2.45;;;17.60;58.90;;;;;;6308321;22;20003;-84
2021/06/15 02:28:25;;;;;;;6.53;2.78;;;17.60;58.40;;;;;;6280826;22;20030;-85
2021/06/15 02:30:51;;;;;;;6.40;2.70;;;17.60;58.10;;;;;;6307452;22;20026;-85
2021/06/15 02:33:25;;;;;;;6.43;2.83;;;17.60;58.50;;;;;;6279943;22;20023;-85
2021/06/15 02:35:54;;;;;;;7.13;2.63;;;17.50;58.40;;;;;;6279249;22;20080;-85
2021/06/15 02:38:28;;;;;;;5.63;2.88;;;17.50;58.60;;;;;;6307547;22;19998;-85
2021/06/15 02:41:00;;;;;;;5.97;2.60;;;17.40;59.00;;;;;;6279717;22;20452;-85
2021/06/15 02:43:27;;;;;;;5.43;2.67;;;17.40;59.30;;;;;;6280059;22;20003;-84
2021/06/15 02:45:55;;;;;;;3.90;2.63;;;17.40;59.30;;;;;;6280023;22;20041;-82
2021/06/15 02:48:23;;;;;;;5.07;2.90;;;17.30;59.40;;;;;;6307940;22;20426;-82
2021/06/15 02:50:53;;;;;;;3.60;2.30;;;17.30;59.50;;;;;;6279956;22;20035;-83
2021/06/15 02:53:41;;;;;;;4.33;2.63;;;17.30;59.60;;;;;;6279952;22;20004;-83
2021/06/15 02:56:14;;;;;;;6.50;2.83;;;17.20;59.60;;;;;;6280402;22;20053;-83
2021/06/15 02:58:40;;;;;;;4.10;2.47;;;17.20;59.70;;;;;;6308246;22;19995;-83
2021/06/15 03:01:06;;;;;;;5.23;2.53;;;17.10;59.80;;;;;;6306673;22;20018;-86
2021/06/15 03:03:34;;;;;;;6.37;2.60;;;17.10;60.00;;;;;;6280057;22;20011;-86
2021/06/15 03:06:00;;;;;;;7.77;2.83;;;17.10;59.90;;;;;;6307937;22;20074;-86
2021/06/15 03:08:26;;;;;;;8.00;2.77;;;17.10;59.70;;;;;;6280032;22;20418;-86
2021/06/15 03:10:53;;;;;;;4.70;2.87;;;17.00;59.80;;;;;;6280381;22;20052;-86
2021/06/15 03:13:37;;;;;;;4.20;2.60;;;17.00;60.10;;;;;;6280233;22;20000;-86
2021/06/15 03:16:06;;;;;;;5.30;3.40;;;16.90;60.30;;;;;;6280144;22;20007;-86
2021/06/15 03:18:46;;;;;;;6.57;3.00;;;16.90;60.30;;;;;;6279305;22;20003;-86
2021/06/15 03:21:17;;;;;;;8.40;3.10;;;16.90;60.40;;;;;;6280098;22;20395;-86
2021/06/15 03:23:51;;;;;;;7.57;3.00;;;16.80;60.70;;;;;;6279794;22;20495;-87
2021/06/15 03:26:21;;;;;;;6.50;2.73;;;16.80;60.70;;;;;;6280517;22;20007;-86
2021/06/15 03:28:56;;;;;;;5.07;3.07;;;16.80;60.70;;;;;;6281043;22;20090;-87
2021/06/15 03:31:24;;;;;;;6.03;3.43;;;16.80;60.90;;;;;;6280713;22;20011;-86
2021/06/15 03:33:53;;;;;;;5.77;2.77;;;16.80;61.30;;;;;;6280549;22;20000;-86
2021/06/15 03:36:21;;;;;;;5.17;2.80;;;16.80;61.50;;;;;;6280597;22;20086;-86
2021/06/15 03:38:49;;;;;;;4.30;2.60;;;16.70;61.50;;;;;;6307827;22;20002;-86
2021/06/15 03:41:16;;;;;;;5.87;3.20;;;16.70;61.90;;;;;;6280847;22;20053;-86
2021/06/15 03:43:52;;;;;;;6.13;3.27;;;16.70;62.10;;;;;;6280635;22;20003;-85
2021/06/15 03:46:21;;;;;;;6.90;3.20;;;16.60;62.30;;;;;;6275314;22;20045;-86
2021/06/15 03:48:49;;;;;;;3.53;2.90;;;16.60;62.40;;;;;;6275809;22;20007;-86
2021/06/15 03:51:31;;;;;;;10.80;3.13;;;16.60;62.60;;;;;;6275304;22;20415;-87
2021/06/15 03:54:11;;;;;;;4.15;2.70;;;16.70;62.80;;;;;;6275639;22;20377;-86
2021/06/15 03:57:01;;;;;;;4.00;3.17;;;16.60;62.80;;;;;;6275360;22;20026;-86
2021/06/15 03:59:44;;;;;;;5.97;3.67;;;16.60;62.70;;;;;;6276958;22;19996;-86
2021/06/15 04:02:11;;;;;;;6.65;3.33;;;16.60;62.60;;;;;;6276581;22;20004;-87
2021/06/15 04:04:40;;;;;;;6.47;3.30;;;16.60;62.60;;;;;;6277120;22;20495;-87
2021/06/15 04:07:13;;;;;;;5.93;3.37;;;16.60;62.60;;;;;;6276914;22;20045;-87
2021/06/15 04:09:39;;;;;;;7.32;2.78;;;16.50;62.40;;;;;;6275569;22;20083;-87
2021/06/15 04:12:06;;;;;;;10.57;3.77;;;16.50;62.60;;;;;;6274437;22;20008;-86
2021/06/15 04:14:34;;;;;;;4.90;3.10;;;16.50;62.50;;;;;;6276871;22;20006;-88
2021/06/15 04:17:01;;;;;;;6.40;3.13;;;16.60;62.50;;;;;;6275132;22;19999;-87
2021/06/15 04:19:30;;;;;;;7.00;3.40;;;16.50;62.80;;;;;;6274888;22;20030;-87
2021/06/15 04:22:00;;;;;;;5.23;3.10;;;16.50;63.10;;;;;;6276597;22;20038;-87
2021/06/15 04:24:27;;;;;;;6.43;3.43;;;16.60;63.20;;;;;;6275115;22;20749;-88
2021/06/15 04:26:58;;;;;;;4.43;3.00;;;16.60;63.20;;;;;;6276904;22;20445;-87
2021/06/15 04:29:24;;;;;;;5.17;3.73;;;16.60;63.30;;;;;;6276652;22;20422;-87
2021/06/15 04:31:55;;;;;;;8.23;4.57;;;16.60;63.40;;;;;;6274782;22;20011;-87
2021/06/15 04:34:25;;;;;;;6.77;4.30;;;16.60;63.50;;;;;;6275089;22;20011;-87
2021/06/15 04:36:56;;;;;;;8.90;4.00;;;16.60;63.50;;;;;;6275611;22;20091;-88
2021/06/15 04:39:23;;;;;;;7.83;3.63;;;16.60;63.50;;;;;;6274441;22;20058;-87
2021/06/15 04:41:55;;;;;;;5.40;3.67;;;16.60;63.30;;;;;;6275287;22;20091;-88
2021/06/15 04:44:32;;;;;;;6.15;4.25;;;16.50;63.50;;;;;;6276167;22;20006;-87
2021/06/15 04:47:04;;;;;;;6.13;4.20;;;16.50;64.30;;;;;;6274516;22;20042;-87
2021/06/15 04:49:33;;;;;;;6.22;4.45;;;16.50;63.90;;;;;;6274646;22;20008;-87
2021/06/15 04:52:01;;;;;;;7.47;4.20;;;16.40;64.10;;;;;;6274794;22;20018;-87
2021/06/15 04:54:36;;;;;;;6.87;4.20;;;16.50;64.10;;;;;;6276281;22;20014;-87
2021/06/15 04:57:06;;;;;;;7.07;4.77;;;16.50;63.70;;;;;;6276747;22;19996;-87
2021/06/15 04:59:34;;;;;;;6.73;4.40;;;16.60;63.60;;;;;;6274671;22;20422;-87
2021/06/15 05:02:01;;;;;;;6.00;4.70;;;16.60;63.70;;;;;;6274620;22;20375;-88
2021/06/15 05:04:27;;;;;;;7.67;4.13;;;16.60;63.80;;;;;;6274288;22;20049;-87
2021/06/15 05:06:53;;;;;;;7.67;4.73;;;16.60;63.90;;;;;;6275326;22;20037;-88
2021/06/15 05:09:24;;;;;;;5.60;3.97;;;16.60;64.20;;;;;;6276553;22;19995;-88
2021/06/15 05:11:50;;;;;;;5.87;4.47;;;16.60;64.50;;;;;;6274583;22;20027;-88
2021/06/15 05:14:17;;;;;;;11.93;5.83;;;16.60;64.50;;;;;;6276152;22;20023;-88
2021/06/15 05:16:44;;;;;;;15.43;5.37;;;16.60;64.40;;;;;;6274612;22;20011;-88
2021/06/15 05:19:10;;;;;;;13.33;5.00;;;16.60;64.50;;;;;;6273354;22;20000;-87
2021/06/15 05:22:02;;;;;;;14.00;5.27;;;16.60;64.40;;;;;;6276192;22;20102;-87
2021/06/15 05:24:53;;;;;;;13.23;5.57;;;16.70;64.70;;;;;;6274425;22;20000;-87
2021/06/15 05:27:23;;;;;;;12.70;5.33;;;16.70;64.70;;;;;;6275810;22;20014;-87
2021/06/15 05:29:49;;;;;;;12.50;5.47;;;16.70;64.50;;;;;;6274826;22;20103;-88
2021/06/15 05:32:15;;;;;;;6.83;5.27;;;16.80;64.40;;;;;;6273825;22;20014;-87
2021/06/15 05:34:41;;;;;;;10.70;5.00;;;16.80;64.30;;;;;;6275259;22;19996;-87
2021/06/15 05:37:07;;;;;;;7.60;5.30;;;16.80;64.40;;;;;;6248314;22;20069;-88
2021/06/15 05:39:35;;;;;;;8.47;5.40;;;16.80;64.40;;;;;;6274073;22;20053;-88
2021/06/15 05:42:01;;;;;;;16.90;5.80;;;16.90;64.60;;;;;;6274407;22;20015;-88
2021/06/15 05:44:29;;;;;;;10.60;5.60;;;16.90;65.20;;;;;;6273649;22;20447;-87
2021/06/15 05:46:54;;;;;;;14.40;6.20;;;16.90;64.70;;;;;;6274691;22;20047;-88
2021/06/15 05:49:20;;;;;;;9.67;6.43;;;17.00;64.80;;;;;;6274679;22;20015;-87
2021/06/15 05:51:46;;;;;;;13.97;6.53;;;17.00;64.80;;;;;;6275920;22;19999;-87
2021/06/15 05:54:12;;;;;;;12.03;6.07;;;17.00;64.80;;;;;;6274611;22;20071;-87
2021/06/15 05:56:38;;;;;;;16.05;7.38;;;17.10;64.80;;;;;;6274125;22;20004;-88
2021/06/15 05:59:04;;;;;;;15.03;7.60;;;17.10;64.70;;;;;;6273623;22;20035;-87
2021/06/15 06:01:30;;;;;;;13.73;7.83;;;17.10;64.80;;;;;;6273933;22;20011;-87
2021/06/15 06:04:07;;;;;;;14.23;7.93;;;17.10;64.80;;;;;;6274923;22;20004;-87
2021/06/15 06:09:17;;;;;;;14.00;6.63;;;17.20;64.70;;;;;;6275942;22;20085;-87
2021/06/15 06:11:44;;;;;;;11.45;6.60;;;17.20;64.70;;;;;;6274443;22;20008;-87
2021/06/15 06:14:11;;;;;;;10.47;6.10;;;17.20;64.80;;;;;;6276180;22;19996;-87
2021/06/15 06:16:40;;;;;;;12.70;6.73;;;17.30;64.70;;;;;;6276034;22;20074;-86
2021/06/15 06:19:05;;;;;;;9.00;6.47;;;17.30;64.70;;;;;;6273593;22;20342;-87
2021/06/15 06:21:34;;;;;;;10.13;6.18;;;17.40;64.90;;;;;;6275566;22;20003;-87
2021/06/15 06:24:00;;;;;;;10.40;5.03;;;17.40;65.40;;;;;;6273674;22;20430;-86
2021/06/15 06:26:27;;;;;;;8.95;6.20;;;17.40;64.90;;;;;;6274228;22;20014;-87
2021/06/15 06:28:52;;;;;;;9.68;6.00;;;17.40;64.80;;;;;;6275068;22;20071;-87
2021/06/15 06:31:19;;;;;;;12.00;6.32;;;17.50;64.80;;;;;;6273565;22;20104;-87
2021/06/15 06:33:45;;;;;;;11.90;6.07;;;17.60;64.70;;;;;;6273638;22;20003;-88
2021/06/15 06:36:10;;;;;;;12.23;6.65;;;17.60;64.60;;;;;;6274466;22;20334;-86
2021/06/15 06:38:36;;;;;;;13.35;5.93;;;17.70;64.40;;;;;;6276578;22;20053;-87
2021/06/15 06:41:02;;;;;;;9.18;5.40;;;17.70;64.20;;;;;;6275604;22;20015;-87
2021/06/15 06:43:28;;;;;;;8.88;5.75;;;17.80;64.40;;;;;;6276337;22;20088;-87
2021/06/15 06:45:54;;;;;;;9.25;5.10;;;17.90;64.20;;;;;;6277460;22;20082;-87
2021/06/15 06:48:20;;;;;;;10.00;5.60;;;17.90;63.90;;;;;;6281439;22;20084;-87
2021/06/15 06:50:46;;;;;;;11.65;5.30;;;18.00;63.80;;;;;;6279554;22;20014;-87
2021/06/15 06:53:12;;;;;;;11.80;5.30;;;18.20;63.50;;;;;;6280331;22;20417;-87
2021/06/15 06:55:37;;;;;;;8.63;4.57;;;18.30;63.00;;;;;;6280790;22;19999;-87
2021/06/15 06:58:05;;;;;;;10.45;5.55;;;18.40;63.10;;;;;;6280124;22;20026;-87
2021/06/15 07:00:31;;;;;;;26.20;6.35;;;18.60;63.00;;;;;;6308566;22;20425;-87
2021/06/15 07:02:57;;;;;;;49.45;8.40;;;18.80;62.70;;;;;;6280759;22;20434;-87
2021/06/15 07:05:23;;;;;;;30.65;7.07;;;18.80;62.10;;;;;;6281053;22;20038;-87
2021/06/15 07:07:51;;;;;;;43.15;8.98;;;19.00;61.60;;;;;;6281376;22;20008;-87
2021/06/15 07:10:17;;;;;;;22.38;5.30;;;19.10;61.30;;;;;;6281381;22;20053;-87
2021/06/15 07:12:43;;;;;;;13.48;5.40;;;19.30;61.10;;;;;;6281360;22;20011;-87
2021/06/15 07:15:09;;;;;;;12.32;5.50;;;19.50;60.70;;;;;;6281393;22;20335;-87
2021/06/15 07:17:34;;;;;;;12.93;4.90;;;19.60;60.40;;;;;;6281076;22;20019;-87
2021/06/15 07:20:00;;;;;;;10.77;4.88;;;19.70;60.10;;;;;;6281470;22;20003;-87
2021/06/15 07:22:26;;;;;;;9.35;5.13;;;19.80;59.90;;;;;;6281229;22;20003;-87
2021/06/15 07:24:51;;;;;;;9.10;4.75;;;20.00;59.70;;;;;;6281078;22;20084;-87
2021/06/15 07:27:17;;;;;;;8.63;4.28;;;20.00;59.60;;;;;;6281223;22;20013;-87
2021/06/15 07:29:43;;;;;;;7.05;3.88;;;20.20;59.50;;;;;;6280846;22;20007;-87
2021/06/15 07:32:09;;;;;;;6.82;4.50;;;20.40;59.50;;;;;;6307946;22;19999;-87
2021/06/15 07:34:35;;;;;;;12.35;4.50;;;20.50;59.20;;;;;;6281031;22;20061;-87
2021/06/15 07:37:00;;;;;;;8.02;4.57;;;20.70;59.10;;;;;;6280109;22;20421;-87
2021/06/15 07:39:26;;;;;;;9.82;4.20;;;20.90;58.90;;;;;;6308496;22;19999;-87
2021/06/15 07:41:52;;;;;;;6.25;3.80;;;21.00;58.70;;;;;;6280687;22;20048;-88
2021/06/15 07:44:18;;;;;;;6.13;3.50;;;21.20;58.40;;;;;;6280994;22;20065;-86
2021/06/15 07:46:43;;;;;;;7.55;3.80;;;21.30;58.20;;;;;;6280636;22;20102;-85
2021/06/15 07:49:09;;;;;;;6.55;3.35;;;21.50;57.70;;;;;;6280766;22;20118;-87
2021/06/15 07:51:36;;;;;;;6.22;4.00;;;21.50;57.50;;;;;;6280115;22;20337;-87
2021/06/15 07:54:02;;;;;;;6.18;4.00;;;21.60;57.20;;;;;;6280532;22;20003;-88
2021/06/15 07:56:27;;;;;;;7.32;4.18;;;21.70;56.70;;;;;;6279845;22;20096;-88
2021/06/15 07:58:53;;;;;;;10.98;4.32;;;21.80;56.40;;;;;;6281039;22;19995;-87
2021/06/15 08:01:19;;;;;;;10.93;4.63;;;21.90;56.10;;;;;;6308119;22;20004;-86
2021/06/15 08:03:45;;;;;;;13.07;4.22;;;22.00;55.50;;;;;;6308335;22;20323;-85
2021/06/15 08:06:11;;;;;;;7.30;3.63;;;22.10;55.10;;;;;;6307158;22;19999;-85
2021/06/15 08:08:36;;;;;;;5.80;3.55;;;22.30;54.50;;;;;;6280693;22;20003;-88
2021/06/15 08:11:03;;;;;;;9.50;3.70;;;22.40;53.90;;;;;;6280473;22;20015;-86
2021/06/15 08:13:29;;;;;;;7.65;3.58;;;22.50;53.30;;;;;;6280976;22;19999;-86
2021/06/15 08:15:55;;;;;;;9.85;3.83;;;22.60;53.00;;;;;;6307927;22;20074;-86
2021/06/15 08:18:21;;;;;;;8.15;4.00;;;22.70;52.70;;;;;;6279842;22;20038;-86
2021/06/15 08:20:53;;;;;;;8.93;3.50;;;22.80;52.60;;;;;;6280804;22;20003;-86
2021/06/15 08:23:19;;;;;;;11.23;3.47;;;23.00;52.30;;;;;;6280916;22;20089;-87
2021/06/15 08:25:45;;;;;;;13.70;3.50;;;23.10;51.40;;;;;;6308118;22;19999;-87
2021/06/15 08:28:11;;;;;;;6.40;3.05;;;23.30;50.70;;;;;;6278967;22;20003;-86
2021/06/15 08:30:38;;;;;;;5.15;3.05;;;23.40;50.40;;;;;;6307504;22;20386;-87
2021/06/15 08:33:03;;;;;;;8.77;3.30;;;23.50;50.20;;;;;;6280450;22;20018;-87
2021/06/15 08:35:29;;;;;;;7.05;3.30;;;23.50;50.20;;;;;;6280657;22;20000;-87
2021/06/15 08:37:55;;;;;;;11.18;3.70;;;23.60;50.50;;;;;;6280345;22;20000;-87
2021/06/15 08:40:23;;;;;;;8.02;3.67;;;23.90;50.80;;;;;;6280350;22;20007;-87
2021/06/15 08:42:49;;;;;;;7.15;3.17;;;24.10;50.00;;;;;;6280155;22;19999;-87
2021/06/15 08:45:17;;;;;;;5.95;3.28;;;24.20;50.20;;;;;;6307549;22;19996;-87
2021/06/15 08:47:45;;;;;;;5.95;3.40;;;24.40;50.10;;;;;;6279952;22;20019;-87
2021/06/15 08:50:14;;;;;;;9.57;3.40;;;24.50;50.00;;;;;;6280018;22;20017;-87
2021/06/15 08:52:40;;;;;;;8.85;3.33;;;24.70;49.90;;;;;;6280324;22;20338;-87
2021/06/15 08:55:07;;;;;;;14.63;4.45;;;24.80;49.60;;;;;;6279971;22;20003;-87
2021/06/15 08:57:37;;;;;;;7.47;3.35;;;24.80;48.90;;;;;;6279885;22;20445;-87
2021/06/15 09:00:09;;;;;;;7.40;3.30;;;25.00;49.10;;;;;;6307324;22;19999;-87
2021/06/15 09:02:45;;;;;;;6.95;3.00;;;25.10;49.00;;;;;;6306365;22;20423;-87
2021/06/15 09:05:17;;;;;;;5.88;3.13;;;25.30;48.90;;;;;;6278471;22;20006;-87
2021/06/15 09:08:01;;;;;;;8.57;3.50;;;25.40;48.70;;;;;;6279101;22;20350;-86
2021/06/15 09:10:38;;;;;;;12.73;3.78;;;25.50;49.00;;;;;;6307972;22;20002;-91
2021/06/15 09:13:05;;;;;;;8.43;3.38;;;25.50;48.80;;;;;;6281358;22;19999;-90
2021/06/15 09:15:31;;;;;;;7.78;3.42;;;25.70;48.70;;;;;;6282705;22;20003;-89
2021/06/15 09:17:57;;;;;;;9.20;2.95;;;25.80;48.40;;;;;;6281276;22;20053;-91
2021/06/15 09:20:27;;;;;;;7.03;3.42;;;25.90;48.10;;;;;;6281477;22;20007;-90
2021/06/15 09:23:04;;;;;;;6.93;2.95;;;26.00;47.80;;;;;;6281922;22;20000;-91
2021/06/15 09:25:31;;;;;;;7.68;3.10;;;26.10;47.60;;;;;;6282408;22;20060;-90
2021/06/15 09:27:58;;;;;;;6.60;2.78;;;26.20;47.30;;;;;;6309388;22;20425;-91
2021/06/15 09:30:26;;;;;;;4.07;2.80;;;26.40;47.50;;;;;;6282217;22;20322;-90
2021/06/15 09:32:53;;;;;;;4.28;2.78;;;26.50;47.20;;;;;;6282020;22;20082;-90
2021/06/15 09:35:22;;;;;;;8.15;3.13;;;26.50;47.00;;;;;;6281985;22;20031;-90
2021/06/15 09:37:57;;;;;;;7.60;3.65;;;26.60;46.70;;;;;;6282300;22;20003;-90
2021/06/15 09:40:28;;;;;;;9.07;3.53;;;26.70;46.40;;;;;;6282388;22;20007;-91
2021/06/15 09:43:05;;;;;;;9.07;3.70;;;26.70;46.30;;;;;;6309507;22;20330;-91
2021/06/15 09:45:42;;;;;;;5.85;3.40;;;26.80;46.10;;;;;;6309617;22;20053;-90
2021/06/15 09:48:24;;;;;;;7.18;3.53;;;26.90;45.80;;;;;;6282011;22;20434;-91
2021/06/15 09:51:24;;;;;;;11.13;3.83;;;27.00;45.50;;;;;;6282333;22;20030;-90
2021/06/15 09:53:58;;;;;;;10.57;4.22;;;26.90;45.30;;;;;;6283155;22;20003;-91
2021/06/15 09:56:24;;;;;;;6.35;3.90;;;27.00;45.10;;;;;;6309176;22;19999;-91
2021/06/15 09:58:52;;;;;;;7.40;4.00;;;27.10;45.00;;;;;;6282582;22;20560;-91
2021/06/15 10:01:44;;;;;;;4.78;2.80;;;27.20;44.90;;;;;;6282613;22;20337;-91
2021/06/15 10:04:22;;;;;;;11.40;3.10;;;27.30;44.70;;;;;;6274888;22;20057;-90
2021/06/15 10:06:50;;;;;;;5.50;3.30;;;27.20;44.10;;;;;;6308632;22;20010;-92
2021/06/15 10:09:42;;;;;;;4.03;3.15;;;27.20;43.90;;;;;;6309111;22;20002;-91
2021/06/15 10:12:08;;;;;;;3.08;2.15;;;27.30;43.50;;;;;;6274974;22;19999;-91
2021/06/15 10:14:38;;;;;;;5.78;3.08;;;27.30;43.50;;;;;;6283024;22;20026;-90
2021/06/15 10:17:16;;;;;;;4.32;2.50;;;27.40;43.20;;;;;;6283159;22;20345;-90
2021/06/15 10:19:42;;;;;;;5.50;3.60;;;27.40;43.00;;;;;;6283672;22;20010;-90
2021/06/15 10:22:08;;;;;;;12.00;3.60;;;27.50;42.90;;;;;;6311126;22;20005;-91
2021/06/15 10:24:38;;;;;;;8.23;3.10;;;27.60;42.80;;;;;;6284347;22;20083;-92
2021/06/15 10:27:07;;;;;;;9.48;3.13;;;27.80;41.90;;;;;;6284110;22;20057;-92
2021/06/15 10:29:36;;;;;;;8.13;2.72;;;27.80;42.00;;;;;;6310434;22;20003;-91
2021/06/15 10:32:24;;;;;;;6.28;2.33;;;27.90;42.00;;;;;;6282977;22;19999;-90
2021/06/15 10:35:07;;;;;;;5.88;3.03;;;28.00;41.50;;;;;;6283630;22;20003;-92
2021/06/15 10:37:36;;;;;;;4.00;2.75;;;27.90;41.10;;;;;;6283845;22;20006;-91
2021/06/15 10:40:14;;;;;;;5.25;2.92;;;28.00;41.20;;;;;;6283648;22;20026;-91
2021/06/15 10:43:32;;;;;;;6.32;3.00;;;28.00;41.10;;;;;;6282758;22;19999;-90
2021/06/15 10:46:04;;;;;;;3.53;2.25;;;28.10;41.20;;;;;;6282012;22;20078;-91
2021/06/15 10:48:40;;;;;;;10.30;2.70;;;28.10;40.80;;;;;;6283481;22;20008;-92
2021/06/15 10:51:42;;;;;;;8.98;2.75;;;28.20;40.90;;;;;;6282713;22;20014;-93
2021/06/15 10:54:28;;;;;;;3.65;2.17;;;28.30;41.00;;;;;;6284813;22;19999;-92
2021/06/15 10:57:16;;;;;;;3.80;2.38;;;28.30;40.70;;;;;;6284458;22;19999;-92
2021/06/15 11:00:06;;;;;;;4.55;2.20;;;28.30;40.20;;;;;;6283570;22;20069;-92
2021/06/15 11:02:33;;;;;;;3.65;2.17;;;28.30;40.50;;;;;;6283488;22;20008;-91
2021/06/15 11:05:36;;;;;;;4.40;2.20;;;28.30;40.10;;;;;;6283361;22;20004;-91
2021/06/15 11:08:14;;;;;;;4.97;2.80;;;28.30;39.70;;;;;;6311026;22;20000;-92
2021/06/15 11:10:54;;;;;;;5.57;2.03;;;28.30;39.60;;;;;;6282056;22;20007;-91
2021/06/15 11:13:46;;;;;;;4.57;2.28;;;28.30;40.10;;;;;;6282402;22;20004;-91
2021/06/15 11:16:31;;;;;;;5.47;2.08;;;28.40;39.70;;;;;;6282021;22;20307;-91
2021/06/15 11:19:17;;;;;;;5.47;2.15;;;28.50;39.70;;;;;;6282469;22;19999;-91
2021/06/15 11:21:56;;;;;;;4.50;1.77;;;28.70;40.40;;;;;;6283051;22;20007;-91
2021/06/15 11:24:29;;;;;;;4.25;1.70;;;28.80;39.30;;;;;;6282850;22;20014;-91
2021/06/15 11:27:02;;;;;;;2.70;1.63;;;28.90;39.40;;;;;;6282613;22;20011;-90
2021/06/15 11:29:37;;;;;;;4.18;2.20;;;28.90;38.90;;;;;;6282355;22;20373;-91
2021/06/15 11:32:36;;;;;;;4.78;1.80;;;28.90;38.60;;;;;;6282068;22;20007;-92
2021/06/15 11:35:03;;;;;;;5.85;2.33;;;29.00;38.60;;;;;;6281773;22;20026;-91
2021/06/15 11:37:36;;;;;;;3.38;2.03;;;29.00;38.80;;;;;;6282638;22;20072;-91
2021/06/15 11:40:27;;;;;;;3.58;2.35;;;29.10;38.90;;;;;;6282196;22;20333;-91
2021/06/15 11:43:08;;;;;;;5.65;2.13;;;29.30;38.70;;;;;;6282445;22;20017;-92
2021/06/15 11:45:46;;;;;;;4.32;2.30;;;29.30;38.70;;;;;;6282828;22;20345;-90
2021/06/15 11:48:35;;;;;;;3.55;2.05;;;29.20;38.70;;;;;;6309552;22;20060;-91
2021/06/15 11:51:05;;;;;;;8.55;2.65;;;29.30;38.60;;;;;;6282936;22;20041;-90
2021/06/15 11:53:36;;;;;;;4.55;1.60;;;29.30;38.10;;;;;;6310100;22;19995;-91
2021/06/15 11:56:05;;;;;;;4.22;1.70;;;29.30;38.20;;;;;;6310055;22;19999;-91
2021/06/15 11:58:34;;;;;;;7.10;2.30;;;29.40;38.50;;;;;;6282152;22;20057;-91
2021/06/15 12:01:06;;;;;;;5.47;2.13;;;29.40;38.40;;;;;;6309527;22;20003;-90
2021/06/15 12:03:38;;;;;;;3.05;1.77;;;29.40;38.40;;;;;;6309250;22;20009;-91
2021/06/15 12:06:11;;;;;;;7.35;1.77;;;29.50;38.40;;;;;;6282582;22;20039;-91
2021/06/15 12:08:43;;;;;;;4.65;1.98;;;29.50;38.20;;;;;;6282216;22;20422;-91
2021/06/15 12:11:14;;;;;;;3.45;1.98;;;29.40;38.40;;;;;;6310113;22;20004;-91
2021/06/15 12:13:42;;;;;;;4.78;1.75;;;29.50;38.40;;;;;;6282247;22;20441;-89
2021/06/15 12:16:12;;;;;;;3.80;1.98;;;29.60;38.30;;;;;;6281889;22;20459;-91
2021/06/15 12:18:49;;;;;;;3.08;1.67;;;29.60;37.70;;;;;;6281778;22;20023;-91
2021/06/15 12:21:34;;;;;;;5.50;1.35;;;29.60;37.50;;;;;;6282152;22;20434;-91
2021/06/15 12:24:08;;;;;;;7.72;2.13;;;29.60;37.70;;;;;;6309492;22;20441;-91
2021/06/15 12:26:43;;;;;;;3.10;1.80;;;29.70;37.60;;;;;;6282071;22;20003;-90
2021/06/15 12:29:14;;;;;;;4.03;1.83;;;29.70;37.70;;;;;;6309141;22;20773;-89
2021/06/15 12:31:51;;;;;;;6.07;2.10;;;29.80;37.70;;;;;;6308093;22;20035;-89
2021/06/15 12:34:20;;;;;;;3.88;1.83;;;29.80;37.20;;;;;;6280617;22;20010;-89
2021/06/15 12:36:56;;;;;;;8.05;2.67;;;29.80;37.50;;;;;;6308154;22;20002;-90
2021/06/15 12:39:26;;;;;;;11.88;1.73;;;29.90;37.50;;;;;;6306527;22;20070;-90
2021/06/15 12:42:04;;;;;;;4.95;1.70;;;29.90;37.60;;;;;;6281130;22;20031;-89
2021/06/15 12:44:33;;;;;;;3.53;1.77;;;30.00;37.50;;;;;;6307963;22;20085;-89
2021/06/15 12:47:07;;;;;;;4.43;2.03;;;30.00;37.80;;;;;;6280490;22;20046;-91
2021/06/15 12:49:34;;;;;;;3.50;1.75;;;30.00;37.90;;;;;;6280291;22;20007;-91
2021/06/15 12:52:10;;;;;;;8.27;2.50;;;29.90;38.00;;;;;;6280861;22;20090;-90
2021/06/15 12:54:40;;;;;;;9.45;1.85;;;30.00;37.90;;;;;;6280727;22;20042;-90
2021/06/15 12:57:20;;;;;;;8.05;2.47;;;30.00;37.90;;;;;;6281077;22;20326;-91
2021/06/15 13:00:03;;;;;;;6.50;1.88;;;30.10;38.00;;;;;;6280798;22;20457;-91
2021/06/15 13:02:29;;;;;;;13.48;2.17;;;30.20;37.40;;;;;;6280654;22;20031;-91
2021/06/15 13:04:56;;;;;;;8.35;2.17;;;30.10;37.40;;;;;;6280328;22;20010;-91
2021/06/15 13:07:23;;;;;;;6.20;1.98;;;30.20;37.80;;;;;;6282171;22;20052;-92
2021/06/15 13:09:50;;;;;;;4.22;2.00;;;30.30;37.90;;;;;;6281628;22;20003;-90